Time;durP1;ratioP1;P1;durP2;ratioP2;P2;SDS_P1;SDS_P2;PMS_P1;PMS_P2;Temp;Humidity;BMP_temperature;BMP_pressure;BME280_temperature;BME280_humidity;BME280_pressure;Samples;Min_cycle;Max_cycle;Signal;HPM_P1;HPM_P2
2024/01/30 00:02:28;;;;;;;12.45;8.57;;;;;;;5.72;100.00;102729.00;7397153;19;19918;-66
2024/01/30 00:04:58;;;;;;;11.43;7.28;;;;;;;5.69;100.00;102726.53;7394493;19;19923;-65
2024/01/30 00:07:27;;;;;;;15.23;8.20;;;;;;;5.67;100.00;102720.41;7396412;19;19919;-65
2024/01/30 00:09:59;;;;;;;12.95;7.97;;;;;;;5.65;100.00;102725.84;7395061;19;19929;-65
2024/01/30 00:12:29;;;;;;;12.93;8.88;;;;;;;5.67;100.00;102731.13;7397104;19;20328;-65
2024/01/30 00:14:58;;;;;;;13.60;9.00;;;;;;;5.69;100.00;102735.44;7396260;19;19918;-65
2024/01/30 00:17:47;;;;;;;;;;;;;;;5.64;100.00;102724.16;7398939;19;20034;-65
2024/01/30 00:20:16;;;;;;;14.98;8.57;;;;;;;5.74;100.00;102727.94;7395762;19;19919;-65
2024/01/30 00:22:44;;;;;;;14.18;8.10;;;;;;;5.75;100.00;102728.78;7395652;19;19923;-65
2024/01/30 00:25:16;;;;;;;12.82;7.80;;;;;;;5.76;100.00;102730.53;7396192;19;19939;-66
2024/01/30 00:27:44;;;;;;;11.73;7.97;;;;;;;5.77;100.00;102729.56;7397248;19;19918;-65
2024/01/30 00:30:15;;;;;;;14.90;8.45;;;;;;;5.75;100.00;102728.78;7396450;19;19948;-65
2024/01/30 00:32:43;;;;;;;14.02;8.15;;;;;;;5.73;100.00;102728.06;7395504;19;19951;-65
2024/01/30 00:35:12;;;;;;;14.57;8.93;;;;;;;5.73;100.00;102736.06;7395825;19;20758;-65
2024/01/30 00:37:41;;;;;;;12.32;7.88;;;;;;;5.71;100.00;102729.97;7394327;19;19919;-65
2024/01/30 00:40:15;;;;;;;14.23;7.55;;;;;;;5.72;100.00;102735.22;7394716;19;19919;-65
2024/01/30 00:42:46;;;;;;;13.75;8.15;;;;;;;5.75;100.00;102726.97;7397107;19;19923;-65
2024/01/30 00:45:16;;;;;;;13.48;7.68;;;;;;;5.77;100.00;102722.41;7397271;19;19958;-65
2024/01/30 00:47:45;;;;;;;11.45;8.68;;;;;;;5.76;100.00;102719.81;7391884;19;19930;-65
2024/01/30 00:50:14;;;;;;;15.30;8.32;;;;;;;5.74;100.00;102721.72;7397162;19;20340;-65
2024/01/30 00:52:44;;;;;;;14.70;8.48;;;;;;;5.71;100.00;102722.78;7378550;19;19919;-65
2024/01/30 00:55:14;;;;;;;11.98;8.18;;;;;;;5.73;100.00;102725.38;7380128;19;19923;-65
2024/01/30 00:57:42;;;;;;;13.95;9.20;;;;;;;5.73;100.00;102725.38;7391930;19;19918;-65
2024/01/30 01:00:16;;;;;;;14.43;7.78;;;;;;;5.74;100.00;102727.94;7392598;19;19942;-65
2024/01/30 01:02:45;;;;;;;17.20;9.35;;;;;;;5.71;100.00;102722.78;7392564;19;19977;-65
2024/01/30 01:05:14;;;;;;;24.13;9.82;;;;;;;5.69;100.00;102716.72;7391791;19;19950;-66
2024/01/30 01:07:43;;;;;;;15.00;9.13;;;;;;;5.68;100.00;102723.00;7391856;19;19918;-65
2024/01/30 01:10:13;;;;;;;14.00;8.18;;;;;;;5.64;100.00;102721.50;7393914;19;19918;-65
2024/01/30 01:12:42;;;;;;;14.10;7.80;;;;;;;5.61;100.00;102721.66;7392092;19;19931;-65
2024/01/30 01:15:14;;;;;;;12.93;7.75;;;;;;;5.57;100.00;102714.81;7392317;19;19926;-65
2024/01/30 01:17:43;;;;;;;15.30;8.20;;;;;;;5.56;100.00;102714.94;7390148;19;19923;-65
2024/01/30 01:20:13;;;;;;;13.32;8.00;;;;;;;5.54;100.00;102711.47;7391742;19;19926;-65
2024/01/30 01:22:42;;;;;;;14.20;9.02;;;;;;;5.51;100.00;102699.19;7392077;19;20324;-65
2024/01/30 01:25:12;;;;;;;13.57;8.25;;;;;;;5.48;100.00;102700.22;7391735;19;19930;-67
2024/01/30 01:27:42;;;;;;;11.88;8.18;;;;;;;5.45;100.00;102694.22;7392768;19;20709;-68
2024/01/30 01:30:21;;;;;;;14.65;7.45;;;;;;;5.40;100.00;102691.84;7391653;19;20276;-68
2024/01/30 01:32:54;;;;;;;14.10;8.27;;;;;;;5.37;100.00;102692.06;7387483;19;19919;-67
2024/01/30 01:35:25;;;;;;;12.38;7.15;;;;;;;5.33;100.00;102695.03;7391973;19;19930;-68
2024/01/30 01:37:55;;;;;;;11.02;6.80;;;;;;;5.29;100.00;102697.03;7392957;19;20283;-68
2024/01/30 01:40:26;;;;;;;13.73;7.05;;;;;;;5.27;100.00;102695.41;7392545;19;19937;-68
2024/01/30 01:42:57;;;;;;;12.93;7.57;;;;;;;5.23;100.00;102696.56;7391770;19;19938;-68
2024/01/30 01:45:29;;;;;;;15.68;8.13;;;;;;;5.20;100.00;102692.28;7397130;19;19914;-68
2024/01/30 01:47:58;;;;;;;16.40;8.18;;;;;;;5.17;100.00;102688.94;7395998;19;19933;-68
2024/01/30 01:50:28;;;;;;;11.20;7.57;;;;;;;5.16;100.00;102682.75;7395224;19;20323;-65
2024/01/30 01:52:58;;;;;;;11.20;6.93;;;;;;;5.17;100.00;102689.81;7399099;19;19918;-66
2024/01/30 01:55:28;;;;;;;13.10;6.65;;;;;;;5.17;100.00;102678.25;7252002;19;2763074;-66
2024/01/30 01:57:58;;;;;;;12.85;6.85;;;;;;;5.16;100.00;102681.88;7401100;19;19933;-66
2024/01/30 02:00:31;;;;;;;14.68;8.27;;;;;;;5.13;100.00;102682.94;7399838;19;19919;-66
2024/01/30 02:03:02;;;;;;;12.63;6.82;;;;;;;5.13;100.00;102682.94;7398340;19;19922;-66
2024/01/30 02:05:32;;;;;;;13.80;8.57;;;;;;;5.10;100.00;102675.13;7396217;19;19925;-66
2024/01/30 02:08:01;;;;;;;13.80;7.72;;;;;;;5.07;100.00;102677.13;7399435;19;19919;-66
2024/01/30 02:10:31;;;;;;;10.77;7.53;;;;;;;5.01;100.00;102678.38;7399729;19;20386;-68
2024/01/30 02:13:00;;;;;;;11.82;6.68;;;;;;;4.97;100.00;102679.50;7398279;19;20363;-66
2024/01/30 02:15:32;;;;;;;12.60;7.53;;;;;;;4.97;100.00;102676.84;7400017;19;19923;-66
2024/01/30 02:18:01;;;;;;;;;;;;;;;4.91;100.00;102672.78;7402770;19;19922;-66
2024/01/30 02:20:33;;;;;;;12.85;7.70;;;;;;;4.99;100.00;102662.44;7398484;19;20339;-66
2024/01/30 02:23:06;;;;;;;11.65;7.13;;;;;;;5.04;100.00;102667.50;7397946;19;19914;-66
2024/01/30 02:25:36;;;;;;;15.63;7.43;;;;;;;5.07;100.00;102667.31;7399492;19;20292;-66
2024/01/30 02:28:06;;;;;;;10.88;6.72;;;;;;;5.11;100.00;102663.47;7399606;19;20271;-66
2024/01/30 02:30:35;;;;;;;11.88;7.45;;;;;;;5.11;100.00;102658.13;7398885;19;19922;-66
2024/01/30 02:33:05;;;;;;;11.77;7.32;;;;;;;5.14;100.00;102657.94;7398571;19;19918;-66
2024/01/30 02:35:35;;;;;;;10.40;7.70;;;;;;;5.14;100.00;102654.41;7397709;19;20783;-66
2024/01/30 02:38:07;;;;;;;15.63;7.68;;;;;;;5.16;100.00;102655.16;7398386;19;19922;-66
2024/01/30 02:40:36;;;;;;;12.43;7.10;;;;;;;5.19;100.00;102654.97;7400355;19;20272;-66
2024/01/30 02:43:07;;;;;;;14.57;8.15;;;;;;;5.19;100.00;102666.50;7398401;19;20259;-66
2024/01/30 02:45:36;;;;;;;12.73;7.20;;;;;;;5.22;100.00;102650.28;7400104;19;19922;-66
2024/01/30 02:48:07;;;;;;;12.27;7.50;;;;;;;5.25;100.00;102647.44;7399618;19;19922;-66
2024/01/30 02:50:36;;;;;;;12.23;8.32;;;;;;;5.26;100.00;102645.63;7395462;19;20384;-66
2024/01/30 02:53:08;;;;;;;17.38;8.00;;;;;;;5.24;100.00;102643.03;7397941;19;19922;-66
2024/01/30 02:55:37;;;;;;;;;;;;;;;5.16;100.00;102639.16;7399549;19;19922;-66
2024/01/30 02:58:07;;;;;;;12.00;7.50;;;;;;;5.18;100.00;102634.56;7397733;19;20347;-68
2024/01/30 03:00:37;;;;;;;11.38;7.18;;;;;;;5.16;100.00;102621.31;7400632;19;20260;-68
2024/01/30 03:03:07;;;;;;;13.23;7.07;;;;;;;5.14;100.00;102625.00;7397263;19;19919;-66
2024/01/30 03:05:36;;;;;;;13.05;7.82;;;;;;;5.14;100.00;102625.00;7396369;19;19918;-65
2024/01/30 03:08:09;;;;;;;11.70;6.90;;;;;;;5.16;100.00;102626.66;7395678;19;20328;-68
2024/01/30 03:10:39;;;;;;;11.52;7.18;;;;;;;5.21;100.00;102621.00;7395470;19;19922;-66
2024/01/30 03:13:08;;;;;;;10.68;6.40;;;;;;;5.28;100.00;102628.50;7396850;19;19922;-66
2024/01/30 03:15:38;;;;;;;14.57;8.25;;;;;;;5.36;100.00;102622.66;7394878;19;19919;-66
2024/01/30 03:18:08;;;;;;;14.68;8.07;;;;;;;5.42;100.00;102627.63;7399270;19;19929;-66
2024/01/30 03:20:38;;;;;;;14.30;8.38;;;;;;;5.49;100.00;102620.91;7395929;19;19935;-66
2024/01/30 03:23:10;;;;;;;13.70;7.07;;;;;;;5.57;100.00;102615.91;7397242;19;19942;-66
2024/01/30 03:25:40;;;;;;;12.35;7.68;;;;;;;5.62;100.00;102610.25;7398513;19;19926;-66
2024/01/30 03:28:09;;;;;;;11.70;7.53;;;;;;;5.65;100.00;102605.53;7394835;19;20355;-66
2024/01/30 03:30:38;;;;;;;13.30;7.03;;;;;;;5.63;100.00;102606.63;7398034;19;19926;-66
2024/01/30 03:33:08;;;;;;;13.50;6.82;;;;;;;5.63;100.00;102595.94;7397515;19;19919;-66
2024/01/30 03:35:37;;;;;;;12.65;6.82;;;;;;;5.66;100.00;102606.41;7397674;19;19919;-66
2024/01/30 03:38:09;;;;;;;13.38;6.85;;;;;;;5.63;100.00;102590.59;7396878;19;19919;-66
2024/01/30 03:40:38;;;;;;;;;;;;;;;5.52;100.00;102588.63;7401049;19;19919;-66
2024/01/30 03:43:08;;;;;;;14.13;7.93;;;;;;;5.51;100.00;102588.72;7396531;19;20391;-66
2024/01/30 03:45:37;;;;;;;12.73;6.72;;;;;;;5.48;100.00;102587.09;7397762;19;20292;-66
2024/01/30 03:48:08;;;;;;;12.48;7.22;;;;;;;5.46;100.00;102589.03;7398990;19;19926;-66
2024/01/30 03:50:37;;;;;;;11.20;7.15;;;;;;;5.46;100.00;102576.53;7396509;19;20344;-66
2024/01/30 03:53:09;;;;;;;10.57;6.22;;;;;;;5.46;100.00;102576.53;7397519;19;19918;-66
2024/01/30 03:55:39;;;;;;;13.85;7.60;;;;;;;5.41;100.00;102575.97;7396680;19;20363;-66
2024/01/30 03:58:08;;;;;;;12.77;7.22;;;;;;;5.38;100.00;102583.34;7397317;19;20273;-66
2024/01/30 04:00:38;;;;;;;12.25;6.97;;;;;;;5.39;100.00;102577.06;7396736;19;19922;-66
2024/01/30 04:03:07;;;;;;;14.05;7.50;;;;;;;5.47;100.00;102585.41;7397056;19;19925;-66
2024/01/30 04:05:37;;;;;;;13.40;8.55;;;;;;;5.53;100.00;102573.44;7396957;19;20408;-66
2024/01/30 04:08:07;;;;;;;12.30;7.93;;;;;;;5.61;100.00;102573.81;7395162;19;19918;-66
2024/01/30 04:10:39;;;;;;;10.75;7.57;;;;;;;5.64;100.00;102570.91;7396405;19;19918;-67
2024/01/30 04:13:08;;;;;;;10.60;6.68;;;;;;;5.65;100.00;102570.78;7397340;19;20347;-66
2024/01/30 04:15:38;;;;;;;13.32;7.95;;;;;;;5.69;100.00;102574.13;7395174;19;19945;-66
2024/01/30 04:18:08;;;;;;;12.80;6.90;;;;;;;5.76;100.00;102575.41;7395940;19;19922;-66
2024/01/30 04:20:37;;;;;;;10.60;7.45;;;;;;;5.83;100.00;102577.56;7395886;19;19918;-66
2024/01/30 04:23:06;;;;;;;12.35;7.07;;;;;;;5.90;100.00;102575.38;7396989;19;21165;-66
2024/01/30 04:25:38;;;;;;;15.40;8.25;;;;;;;5.97;100.00;102568.63;7396443;19;19929;-66
2024/01/30 04:28:08;;;;;;;13.85;8.23;;;;;;;6.01;100.00;102563.91;7395333;19;19948;-66
2024/01/30 04:30:38;;;;;;;12.45;8.18;;;;;;;6.04;100.00;102567.22;7398675;19;19934;-66
2024/01/30 04:33:07;;;;;;;10.85;7.50;;;;;;;6.05;100.00;102566.28;7396025;19;20004;-66
2024/01/30 04:35:38;;;;;;;11.50;7.40;;;;;;;6.08;100.00;102574.13;7394464;19;19922;-66
2024/01/30 04:38:08;;;;;;;12.55;7.60;;;;;;;6.12;100.00;102558.69;7393454;19;20264;-66
2024/01/30 04:40:40;;;;;;;10.02;6.70;;;;;;;6.13;100.00;102555.91;7395800;19;19950;-66
2024/01/30 04:43:09;;;;;;;14.18;7.57;;;;;;;6.11;100.00;102568.53;7394115;19;19911;-66
2024/01/30 04:45:38;;;;;;;11.98;7.47;;;;;;;6.12;100.00;102556.03;7397024;19;19933;-66
2024/01/30 04:48:09;;;;;;;12.13;7.35;;;;;;;6.13;100.00;102549.69;7396275;19;19944;-66
2024/01/30 04:50:38;;;;;;;11.18;6.63;;;;;;;6.11;100.00;102557.84;7395003;19;19925;-66
2024/01/30 04:53:08;;;;;;;11.10;7.38;;;;;;;6.09;100.00;102546.38;7394844;19;19922;-66
2024/01/30 04:55:40;;;;;;;11.27;7.10;;;;;;;6.08;100.00;102555.38;7395904;19;19910;-66
2024/01/30 04:58:09;;;;;;;10.80;6.85;;;;;;;6.09;100.00;102554.41;7395693;19;19922;-66
2024/01/30 05:00:39;;;;;;;10.95;6.60;;;;;;;6.11;100.00;102549.81;7395117;19;20577;-66
2024/01/30 05:03:08;;;;;;;13.43;7.50;;;;;;;6.12;100.00;102534.63;7396351;19;20272;-67
2024/01/30 05:05:38;;;;;;;14.50;7.95;;;;;;;6.13;100.00;102536.31;7395276;19;20411;-66
2024/01/30 05:08:08;;;;;;;11.45;7.28;;;;;;;6.12;100.00;102539.97;7396242;19;19926;-66
2024/01/30 05:10:40;;;;;;;14.23;7.38;;;;;;;6.15;100.00;102545.09;7394000;19;19927;-66
2024/01/30 05:13:09;;;;;;;;;;;;;;;6.15;100.00;102547.78;7400228;19;20414;-66
2024/01/30 05:15:39;;;;;;;11.95;7.72;;;;;;;6.24;100.00;102536.44;7395322;19;19915;-66
2024/01/30 05:18:08;;;;;;;15.07;7.80;;;;;;;6.30;100.00;102544.00;7396328;19;19918;-66
2024/01/30 05:20:38;;;;;;;12.15;7.78;;;;;;;6.34;100.00;102549.03;7392883;19;19910;-66
2024/01/30 05:23:07;;;;;;;15.18;7.60;;;;;;;6.39;100.00;102549.56;7392871;19;20588;-66
2024/01/30 05:25:39;;;;;;;14.82;8.55;;;;;;;6.43;100.00;102538.66;7393818;19;20554;-66
2024/01/30 05:28:09;;;;;;;14.35;8.10;;;;;;;6.45;100.00;102531.38;7393594;19;19918;-66
2024/01/30 05:30:38;;;;;;;11.32;7.95;;;;;;;6.44;100.00;102525.16;7391425;19;19922;-66
2024/01/30 05:33:08;;;;;;;15.02;8.05;;;;;;;6.44;100.00;102518.94;7389129;19;20381;-66
2024/01/30 05:35:37;;;;;;;12.88;7.60;;;;;;;6.46;100.00;102509.00;7384222;19;20280;-66
2024/01/30 05:38:07;;;;;;;12.90;8.02;;;;;;;6.47;100.00;102516.06;7387313;19;19930;-66
2024/01/30 05:40:36;;;;;;;14.30;8.07;;;;;;;6.48;100.00;102510.56;7394981;19;19925;-66
2024/01/30 05:43:08;;;;;;;13.70;8.82;;;;;;;6.51;100.00;102515.72;7392853;19;19915;-66
2024/01/30 05:45:37;;;;;;;;;;;;;;;6.49;100.00;102500.72;7398271;19;19929;-67
2024/01/30 05:48:08;;;;;;;14.40;7.25;;;;;;;6.53;100.00;102492.38;7391540;19;20654;-66
2024/01/30 05:50:37;;;;;;;11.00;7.90;;;;;;;6.55;100.00;102494.94;7392356;19;19915;-66
2024/01/30 05:53:06;;;;;;;14.95;7.57;;;;;;;6.54;100.00;102494.09;7394786;19;19918;-66
2024/01/30 05:55:36;;;;;;;13.13;8.55;;;;;;;6.56;100.00;102491.31;7392749;19;19918;-66
2024/01/30 05:58:08;;;;;;;13.82;8.43;;;;;;;6.57;100.00;102501.88;7393084;19;19923;-66
2024/01/30 06:00:37;;;;;;;;;;;;;;;6.51;100.00;102499.66;7396117;19;19918;-65
2024/01/30 06:03:07;;;;;;;14.65;8.50;;;;;;;6.55;100.00;102506.50;7392993;19;19926;-68
2024/01/30 06:05:36;;;;;;;13.00;7.57;;;;;;;6.57;100.00;102498.34;7392318;19;19919;-68
2024/01/30 06:08:07;;;;;;;13.57;7.82;;;;;;;6.59;100.00;102485.72;7393586;19;20263;-68
2024/01/30 06:10:36;;;;;;;12.15;8.77;;;;;;;6.60;100.00;102476.72;7392322;19;19919;-68
2024/01/30 06:13:08;;;;;;;13.57;8.48;;;;;;;6.59;100.00;102480.38;7393208;19;19922;-68
2024/01/30 06:15:38;;;;;;;13.10;7.72;;;;;;;6.60;100.00;102477.56;7390042;19;19954;-68
2024/01/30 06:18:07;;;;;;;13.93;8.35;;;;;;;6.63;100.00;102492.56;7392741;19;19933;-68
2024/01/30 06:20:37;;;;;;;12.48;7.32;;;;;;;6.66;100.00;102505.72;7391165;19;20323;-68
2024/01/30 06:23:06;;;;;;;17.85;9.10;;;;;;;6.70;100.00;102513.41;7393146;19;19930;-68
2024/01/30 06:25:36;;;;;;;12.90;8.18;;;;;;;6.74;100.00;102516.72;7391913;19;20744;-68
2024/01/30 06:28:08;;;;;;;13.38;8.27;;;;;;;6.80;100.00;102516.28;7392440;19;19922;-68
2024/01/30 06:30:38;;;;;;;18.67;8.57;;;;;;;6.82;100.00;102500.94;7394617;19;19922;-66
2024/01/30 06:33:07;;;;;;;16.02;8.88;;;;;;;6.89;100.00;102501.34;7399373;19;19914;-66
2024/01/30 06:35:39;;;;;;;18.15;8.95;;;;;;;6.94;100.00;102500.06;7394888;19;19919;-66
2024/01/30 06:38:10;;;;;;;14.57;8.45;;;;;;;6.98;100.00;102492.63;7399052;19;19922;-66
2024/01/30 06:40:39;;;;;;;14.38;8.10;;;;;;;7.01;100.00;102492.41;7395779;19;19915;-66
2024/01/30 06:43:12;;;;;;;13.88;7.63;;;;;;;7.03;100.00;102509.25;7397023;19;19914;-66
2024/01/30 06:45:42;;;;;;;16.05;8.55;;;;;;;7.04;100.00;102509.09;7398634;19;19934;-66
2024/01/30 06:48:11;;;;;;;13.15;8.05;;;;;;;7.05;100.00;102518.84;7397695;19;20391;-66
2024/01/30 06:50:41;;;;;;;15.40;8.13;;;;;;;7.06;100.00;102522.41;7397867;19;20257;-67
2024/01/30 06:53:10;;;;;;;13.40;8.02;;;;;;;7.05;100.00;102518.84;7396302;19;20610;-66
2024/01/30 06:55:39;;;;;;;14.77;8.73;;;;;;;7.07;100.00;102524.13;7395525;19;19922;-66
2024/01/30 06:58:11;;;;;;;19.85;8.63;;;;;;;7.06;100.00;102506.31;7396430;19;20394;-66
2024/01/30 07:00:41;;;;;;;;;;;;;;;7.02;100.00;102504.84;7399054;19;19914;-66
2024/01/30 07:03:11;;;;;;;13.65;8.50;;;;;;;7.06;100.00;102503.63;7397001;19;19919;-66
2024/01/30 07:05:40;;;;;;;16.63;8.38;;;;;;;7.05;100.00;102499.25;7395454;19;19918;-66
2024/01/30 07:08:09;;;;;;;11.32;7.32;;;;;;;7.06;100.00;102495.59;7398705;19;19934;-66
2024/01/30 07:10:39;;;;;;;12.43;8.00;;;;;;;7.05;100.00;102494.75;7396344;19;20581;-66
2024/01/30 07:13:09;;;;;;;14.10;8.45;;;;;;;7.05;100.00;102501.91;7398763;19;19926;-66
2024/01/30 07:15:42;;;;;;;13.27;8.10;;;;;;;7.06;100.00;102496.47;7396780;19;19918;-66
2024/01/30 07:18:13;;;;;;;11.93;7.72;;;;;;;7.07;100.00;102492.81;7396885;19;19918;-67
2024/01/30 07:20:46;;;;;;;14.35;7.88;;;;;;;7.06;100.00;102469.66;7396798;19;19919;-67
2024/01/30 07:23:17;;;;;;;12.98;7.72;;;;;;;7.05;100.00;102467.94;7398308;19;19918;-67
2024/01/30 07:25:48;;;;;;;13.50;7.35;;;;;;;7.05;100.00;102467.94;7397205;19;19919;-66
2024/01/30 07:28:18;;;;;;;12.70;7.78;;;;;;;7.04;100.00;102460.88;7395802;19;19922;-67
2024/01/30 07:30:50;;;;;;;15.63;8.15;;;;;;;7.04;100.00;102484.13;7396334;19;19922;-66
2024/01/30 07:33:20;;;;;;;13.80;8.43;;;;;;;7.02;100.00;102494.97;7395887;19;19918;-66
2024/01/30 07:35:49;;;;;;;13.38;8.15;;;;;;;7.02;100.00;102484.25;7398017;19;19914;-66
2024/01/30 07:38:19;;;;;;;13.93;8.93;;;;;;;7.03;100.00;102488.63;7389095;19;20533;-66
2024/01/30 07:40:48;;;;;;;13.27;7.82;;;;;;;7.04;100.00;102494.84;7387869;19;20276;-65
2024/01/30 07:43:19;;;;;;;11.00;7.78;;;;;;;7.06;100.00;102509.00;7392420;19;20256;-66
2024/01/30 07:45:51;;;;;;;13.75;7.90;;;;;;;7.06;100.00;102493.78;7394564;19;20617;-72
2024/01/30 07:48:21;;;;;;;13.25;7.50;;;;;;;7.02;100.00;102519.09;7393742;19;19915;-81
2024/01/30 07:50:50;;;;;;;13.38;8.50;;;;;;;7.03;100.00;102510.06;7395189;19;19955;-78
2024/01/30 07:53:24;;;;;;;13.13;8.60;;;;;;;7.01;100.00;102506.66;7392548;19;19919;-93
2024/01/30 07:55:55;;;;;;;12.73;8.13;;;;;;;7.05;100.00;102502.78;7406791;19;19922;-94
2024/01/30 07:58:33;;;;;;;13.90;8.57;;;;;;;7.05;100.00;102509.97;7405584;19;19931;-90
2024/01/30 08:01:05;;;;;;;13.15;8.38;;;;;;;7.07;100.00;102524.97;7402965;19;20352;-92
2024/01/30 08:03:35;;;;;;;14.18;8.32;;;;;;;7.09;100.00;102522.16;7405607;19;19930;-89
2024/01/30 08:06:06;;;;;;;17.40;9.43;;;;;;;7.12;100.00;102521.94;7405472;19;19958;-87
2024/01/30 08:08:37;;;;;;;18.80;8.85;;;;;;;7.16;100.00;102515.41;7402659;19;19942;-82
2024/01/30 08:11:07;;;;;;;12.55;7.40;;;;;;;7.19;100.00;102513.34;7399732;19;19918;-85
2024/01/30 08:13:37;;;;;;;12.50;8.38;;;;;;;7.24;100.00;102510.31;7399605;19;19918;-86
2024/01/30 08:16:09;;;;;;;14.65;8.20;;;;;;;7.25;100.00;102504.81;7399251;19;19923;-84
2024/01/30 08:18:39;;;;;;;11.98;7.57;;;;;;;7.27;100.00;102520.78;7402253;19;20011;-81
2024/01/30 08:21:09;;;;;;;13.20;8.80;;;;;;;7.29;100.00;102508.13;7398775;19;19933;-82
2024/01/30 08:23:38;;;;;;;14.65;8.32;;;;;;;7.30;100.00;102509.81;7394405;19;19914;-83
2024/01/30 08:26:08;;;;;;;16.25;8.65;;;;;;;7.32;100.00;102512.41;7399892;19;19940;-82
2024/01/30 08:28:37;;;;;;;15.38;7.78;;;;;;;7.34;100.00;102510.44;7399004;19;19930;-83
2024/01/30 08:31:12;;;;;;;12.50;7.25;;;;;;;7.36;100.00;102514.75;7400838;19;19933;-89
2024/01/30 08:33:42;;;;;;;14.05;7.00;;;;;;;7.40;100.00;102518.03;7399391;19;19929;-89
2024/01/30 08:36:12;;;;;;;15.70;7.82;;;;;;;7.39;100.00;102509.13;7404918;19;19926;-84
2024/01/30 08:38:42;;;;;;;13.35;7.15;;;;;;;7.43;100.00;102512.44;7402483;19;19922;-83
2024/01/30 08:41:11;;;;;;;13.25;7.47;;;;;;;7.46;100.00;102510.41;7397865;19;19918;-79
2024/01/30 08:43:41;;;;;;;14.40;8.57;;;;;;;7.48;100.00;102521.84;7394884;19;19914;-78
2024/01/30 08:46:13;;;;;;;13.73;7.38;;;;;;;7.54;100.00;102528.56;7399311;19;19930;-87
2024/01/30 08:48:43;;;;;;;14.80;8.10;;;;;;;7.57;100.00;102512.25;7402831;19;19911;-92
2024/01/30 08:51:15;;;;;;;12.13;7.25;;;;;;;7.62;100.00;102531.53;7404735;19;19928;-89
2024/01/30 08:53:46;;;;;;;14.05;7.85;;;;;;;7.61;100.00;102514.56;7403572;19;19929;-88
2024/01/30 08:56:16;;;;;;;9.65;7.47;;;;;;;7.68;100.00;102529.22;7415609;19;19919;-90
2024/01/30 08:58:45;;;;;;;13.73;7.97;;;;;;;7.71;100.00;102531.69;7406152;19;19930;-85
2024/01/30 09:01:18;;;;;;;11.88;7.00;;;;;;;7.77;100.00;102534.88;7399309;19;19923;-84
2024/01/30 09:03:47;;;;;;;11.63;6.75;;;;;;;7.81;100.00;102542.53;7397131;19;19970;-83
2024/01/30 09:06:17;;;;;;;12.93;7.38;;;;;;;7.82;100.00;102532.66;7397164;19;19918;-87
2024/01/30 09:08:47;;;;;;;14.98;7.40;;;;;;;7.84;100.00;102536.94;7402479;19;19922;-90
2024/01/30 09:11:17;;;;;;;12.80;7.22;;;;;;;7.90;100.00;102536.47;7413540;19;19918;-91
2024/01/30 09:13:47;;;;;;;11.70;7.25;;;;;;;7.92;100.00;102541.72;7402592;19;19929;-91
2024/01/30 09:16:20;;;;;;;11.93;7.68;;;;;;;7.95;100.00;102536.09;7406866;19;19925;-90
2024/01/30 09:18:49;;;;;;;12.20;7.38;;;;;;;7.99;100.00;102551.84;7402734;19;20773;-87
2024/01/30 09:21:19;;;;;;;10.88;6.93;;;;;;;8.01;100.00;102560.66;7400909;19;19922;-79
2024/01/30 09:23:48;;;;;;;12.15;8.15;;;;;;;8.05;100.00;102546.00;7392911;19;19919;-78
2024/01/30 09:26:18;;;;;;;11.45;7.30;;;;;;;8.11;100.00;102556.25;7394093;19;19949;-77
2024/01/30 09:28:47;;;;;;;10.95;7.00;;;;;;;8.13;100.00;102548.94;7390298;19;19923;-79
2024/01/30 09:31:19;;;;;;;13.35;7.57;;;;;;;8.19;100.00;102550.31;7393612;19;19930;-78
2024/01/30 09:33:49;;;;;;;;;;;;;;;8.19;100.00;102545.81;7394686;19;20490;-79
2024/01/30 09:36:19;;;;;;;14.25;7.30;;;;;;;8.24;100.00;102549.94;7394288;19;19922;-78
2024/01/30 09:38:49;;;;;;;11.38;7.13;;;;;;;8.28;100.00;102548.72;7393383;19;19925;-77
2024/01/30 09:41:21;;;;;;;11.43;6.63;;;;;;;8.31;100.00;102559.25;7393364;19;19922;-83
2024/01/30 09:43:51;;;;;;;9.30;6.40;;;;;;;8.34;100.00;102562.53;7398477;19;19915;-87
2024/01/30 09:46:26;;;;;;;13.70;7.78;;;;;;;8.39;100.00;102559.50;7398434;19;19925;-85
2024/01/30 09:48:57;;;;;;;11.00;7.05;;;;;;;8.41;100.00;102553.03;7400059;19;19914;-91
2024/01/30 09:51:29;;;;;;;17.98;7.35;;;;;;;8.47;100.00;102559.75;7399494;19;19928;-89
2024/01/30 09:53:59;;;;;;;13.23;7.00;;;;;;;8.55;100.00;102546.53;7398770;19;19918;-89
2024/01/30 09:56:28;;;;;;;11.75;6.72;;;;;;;8.59;100.00;102559.59;7402393;19;20493;-88
2024/01/30 09:58:58;;;;;;;11.10;7.00;;;;;;;8.67;100.00;102550.09;7404053;19;19915;-88
2024/01/30 10:01:30;;;;;;;13.07;7.20;;;;;;;8.73;100.00;102542.38;7411744;19;19923;-90
2024/01/30 10:04:00;;;;;;;16.90;6.47;;;;;;;8.79;100.00;102530.28;7413284;19;20255;-87
2024/01/30 10:06:30;;;;;;;11.65;7.22;;;;;;;8.85;100.00;102536.00;7407051;19;20343;-86
2024/01/30 10:09:00;;;;;;;8.90;6.43;;;;;;;8.88;100.00;102543.84;7405708;19;19930;-87
2024/01/30 10:11:29;;;;;;;11.77;6.45;;;;;;;8.92;100.00;102541.75;7406314;19;19958;-88
2024/01/30 10:13:59;;;;;;;10.95;6.60;;;;;;;8.96;100.00;102546.75;7402986;19;19922;-84
2024/01/30 10:16:31;;;;;;;11.90;6.15;;;;;;;9.00;100.00;102541.97;7405060;19;19919;-85
2024/01/30 10:19:00;;;;;;;11.48;5.97;;;;;;;9.02;100.00;102550.75;7403700;19;19919;-85
2024/01/30 10:21:30;;;;;;;11.90;6.22;;;;;;;9.06;100.00;102538.78;7403796;19;19919;-92
2024/01/30 10:24:02;;;;;;;10.40;6.03;;;;;;;9.11;100.00;102533.88;7410405;19;20362;-93
2024/01/30 10:26:34;;;;;;;10.63;5.90;;;;;;;9.15;100.00;102537.19;7411901;19;19918;-92
2024/01/30 10:29:03;;;;;;;9.55;7.35;;;;;;;9.22;100.00;102533.00;7413105;19;20355;-91
2024/01/30 10:31:35;;;;;;;9.77;5.88;;;;;;;9.26;100.00;102546.06;7420796;19;20488;-94
2024/01/30 10:34:04;;;;;;;;;;;;;;;9.20;100.00;102538.47;7409291;19;19915;-75
2024/01/30 10:36:43;;;;;;;10.27;6.85;;;;;;;9.29;100.00;102526.97;7400112;19;20272;-83
2024/01/30 10:39:16;;;;;;;13.35;6.22;;;;;;;9.31;100.00;102533.09;7408572;19;19914;-86
2024/01/30 10:41:46;;;;;;;12.68;7.15;;;;;;;9.33;100.00;102536.47;7404034;19;19914;-88
2024/01/30 10:44:22;;;;;;;12.60;6.22;;;;;;;9.34;100.00;102554.34;7398582;19;20276;-86
2024/01/30 10:47:09;;;;;;;9.98;6.03;;;;;;;9.30;100.00;102560.94;7276370;19;19922;-85
2024/01/30 10:49:39;;;;;;;13.13;6.53;;;;;;;9.30;100.00;102533.19;7403646;19;19918;-87
2024/01/30 10:52:12;;;;;;;9.55;6.10;;;;;;;9.34;100.00;102553.47;7407848;19;20550;-89
2024/01/30 10:54:46;;;;;;;16.33;7.45;;;;;;;9.36;100.00;102556.91;7398626;19;20348;-83
2024/01/30 10:57:18;;;;;;;13.48;6.95;;;;;;;9.38;100.00;102544.16;7407011;19;19928;-83
2024/01/30 10:59:47;;;;;;;;;;;;;;;9.37;100.00;102553.22;7418598;19;20416;-79
2024/01/30 11:02:20;;;;;;;15.68;6.72;;;;;;;9.40;100.00;102539.53;7399256;19;19918;-82
2024/01/30 11:04:49;;;;;;;12.27;6.72;;;;;;;9.45;100.00;102539.97;7397430;19;19924;-85
2024/01/30 11:07:20;;;;;;;10.93;5.95;;;;;;;9.51;100.00;102539.47;7401737;19;19914;-84
2024/01/30 11:09:53;;;;;;;12.73;6.32;;;;;;;9.54;100.00;102536.50;7407394;19;19918;-84
2024/01/30 11:12:26;;;;;;;12.52;6.55;;;;;;;9.60;100.00;102533.31;7400204;19;19918;-83
2024/01/30 11:15:08;;;;;;;9.98;5.93;;;;;;;9.63;100.00;102537.56;7400735;19;19930;-84
2024/01/30 11:17:54;;;;;;;11.43;6.47;;;;;;;9.66;100.00;102540.88;7400104;19;20260;-83
2024/01/30 11:20:27;;;;;;;12.60;6.43;;;;;;;9.72;100.00;102539.47;7398100;19;19922;-83
2024/01/30 11:22:59;;;;;;;11.15;5.93;;;;;;;9.70;100.00;102538.78;7397810;19;19942;-82
2024/01/30 11:25:28;;;;;;;15.98;6.05;;;;;;;9.71;100.00;102546.69;7401185;19;19929;-86
2024/01/30 11:27:58;;;;;;;11.48;7.18;;;;;;;9.74;100.00;102529.44;7401205;19;20348;-82
2024/01/30 11:30:29;;;;;;;11.55;6.90;;;;;;;9.78;100.00;102531.75;7399025;19;19914;-79
2024/01/30 11:33:08;;;;;;;12.25;6.82;;;;;;;9.81;100.00;102538.69;7392328;19;20042;-79
2024/01/30 11:35:39;;;;;;;13.77;6.35;;;;;;;9.84;100.00;102533.03;7400441;19;19919;-87